National Weather Service Raw Text Product

Displaying AFOS PIL: TAFFOD Received: 2017-12-07 03:07 UTC


259 
FTUS43 KDMX 070307 AAA
TAFFOD
TAF AMD
KFOD 070307Z 0703/0724 32012G19KT P6SM OVC035
     FM070700 32011KT P6SM BKN050
     FM071700 29009KT P6SM FEW250=